createdAt,value
2019-04-16T00:01:58.885Z,23.95
2019-04-16T00:04:49.133Z,22.75
2019-04-16T00:07:55.630Z,22.32
2019-04-16T00:10:50.163Z,22.30
2019-04-16T00:13:25.241Z,25.35
2019-04-16T00:15:54.491Z,24.80
2019-04-16T00:18:23.856Z,25.08
2019-04-16T00:21:10.909Z,22.13
2019-04-16T00:24:18.505Z,25.95
2019-04-16T00:26:50.639Z,25.30
2019-04-16T00:29:19.721Z,26.33
2019-04-16T00:31:53.019Z,24.40
2019-04-16T00:34:22.112Z,23.25
2019-04-16T00:36:51.195Z,29.07
2019-04-16T00:39:24.474Z,22.20
2019-04-16T00:41:51.192Z,23.18
2019-04-16T00:44:20.203Z,28.67
2019-04-16T00:46:49.216Z,26.42
2019-04-16T00:49:18.298Z,23.50
2019-04-16T00:51:47.467Z,28.42
2019-04-16T00:54:16.447Z,26.12
2019-04-16T00:56:46.598Z,26.07
2019-04-16T00:59:16.168Z,24.12
2019-04-16T01:01:45.245Z,25.05
2019-04-16T01:04:14.341Z,24.45
2019-04-16T01:06:43.493Z,23.87
2019-04-16T01:09:12.559Z,26.50
2019-04-16T01:11:41.662Z,24.60
2019-04-16T01:14:10.743Z,29.80
2019-04-16T01:16:39.827Z,28.38
2019-04-16T01:19:10.051Z,28.30
2019-04-16T01:21:39.733Z,28.12
2019-04-16T01:24:10.394Z,28.62
2019-04-16T01:26:39.344Z,28.55
2019-04-16T01:29:12.859Z,25.72
2019-04-16T01:31:53.515Z,26.57
2019-04-16T01:34:40.399Z,32.83
2019-04-16T01:37:40.847Z,27.35
2019-04-16T01:40:11.467Z,26.82
2019-04-16T01:42:40.393Z,29.07
2019-04-16T01:45:09.543Z,29.77
2019-04-16T01:47:38.700Z,28.77
2019-04-16T01:50:10.431Z,28.15
2019-04-16T01:52:38.658Z,28.85
2019-04-16T01:55:07.814Z,27.95
2019-04-16T01:57:36.780Z,27.10
2019-04-16T02:00:08.555Z,29.92
2019-04-16T02:02:38.013Z,27.07
2019-04-16T02:05:07.533Z,28.77
2019-04-16T02:07:36.606Z,26.90
2019-04-16T02:10:07.323Z,32.50
2019-04-16T02:12:36.564Z,27.70
2019-04-16T02:15:07.411Z,28.95
2019-04-16T02:17:36.580Z,29.23
2019-04-16T02:20:07.420Z,29.07
2019-04-16T02:22:36.825Z,29.50
2019-04-16T02:25:06.202Z,29.92
2019-04-16T02:27:35.452Z,32.13
2019-04-16T02:30:05.946Z,33.23
2019-04-16T02:32:35.027Z,31.45
2019-04-16T02:35:04.435Z,30.25
2019-04-16T02:37:36.461Z,33.28
2019-04-16T02:40:05.313Z,28.55
2019-04-16T02:42:34.572Z,34.30
2019-04-16T02:45:03.935Z,30.82
2019-04-16T02:47:39.659Z,31.15
2019-04-16T02:50:06.074Z,28.12
2019-04-16T02:53:06.642Z,31.97
2019-04-16T02:55:44.373Z,28.40
2019-04-16T02:58:21.280Z,31.57
2019-04-16T03:01:21.791Z,31.05
2019-04-16T03:03:59.188Z,33.40
2019-04-16T03:06:31.657Z,28.23
2019-04-16T03:08:59.198Z,30.15
2019-04-16T03:11:28.555Z,35.40
2019-04-16T03:13:59.362Z,28.75
2019-04-16T03:16:38.760Z,27.87
2019-04-16T03:19:11.871Z,33.38
2019-04-16T03:21:40.947Z,26.02
2019-04-16T03:24:10.107Z,32.88
2019-04-16T03:26:39.215Z,27.35
2019-04-16T03:29:08.354Z,29.70
2019-04-16T03:31:37.397Z,30.48
2019-04-16T03:34:06.570Z,27.27
2019-04-16T03:36:35.580Z,31.90
2019-04-16T03:39:12.270Z,28.52
2019-04-16T03:41:37.554Z,30.43
2019-04-16T03:44:06.644Z,28.73
2019-04-16T03:46:35.640Z,33.80
2019-04-16T03:49:04.802Z,32.63
2019-04-16T03:51:35.426Z,30.27
2019-04-16T03:54:23.727Z,28.70
2019-04-16T03:56:52.811Z,29.80
2019-04-16T03:59:21.842Z,26.65
2019-04-16T04:01:50.970Z,30.30
2019-04-16T04:04:19.980Z,28.47
2019-04-16T04:06:49.130Z,26.70
2019-04-16T04:09:18.877Z,29.20
2019-04-16T04:11:48.949Z,32.73
2019-04-16T04:14:21.910Z,28.17
2019-04-16T04:16:48.929Z,26.05
2019-04-16T04:19:17.872Z,31.57
2019-04-16T04:21:46.976Z,30.55
2019-04-16T04:24:16.178Z,31.95
2019-04-16T04:26:45.207Z,34.48
2019-04-16T04:29:14.343Z,30.62
2019-04-16T04:31:43.471Z,28.80
2019-04-16T04:34:15.963Z,31.93
2019-04-16T04:36:43.285Z,32.08
2019-04-16T04:39:15.258Z,32.25
2019-04-16T04:41:43.234Z,30.02
2019-04-16T04:44:12.264Z,31.82
2019-04-16T04:46:43.289Z,27.40
2019-04-16T04:49:12.158Z,32.93
2019-04-16T04:51:43.427Z,39.80
2019-04-16T04:54:12.000Z,40.00
2019-04-16T04:56:41.023Z,39.58
2019-04-16T04:59:10.036Z,35.55
2019-04-16T05:01:42.033Z,40.12
2019-04-16T05:04:27.920Z,35.15
2019-04-16T05:06:59.773Z,35.20
2019-04-16T05:09:29.527Z,32.38
2019-04-16T05:11:59.592Z,32.78
2019-04-16T05:14:28.522Z,31.35
2019-04-16T05:16:57.586Z,29.35
2019-04-16T05:19:26.675Z,30.75
2019-04-16T05:21:55.760Z,30.55
2019-04-16T05:24:28.900Z,32.20
2019-04-16T05:26:56.396Z,28.92
2019-04-16T05:29:25.620Z,27.37
2019-04-16T05:31:57.330Z,32.08
2019-04-16T05:34:25.249Z,30.60
2019-04-16T05:36:54.327Z,28.25
2019-04-16T05:39:26.683Z,29.72
2019-04-16T05:41:54.135Z,25.52
2019-04-16T05:44:23.115Z,25.25
2019-04-16T05:46:52.179Z,24.12
2019-04-16T05:49:24.633Z,29.02
2019-04-16T05:51:51.835Z,30.90
2019-04-16T05:54:41.429Z,47.25
2019-04-16T05:57:11.068Z,31.87
2019-04-16T05:59:40.208Z,32.20
2019-04-16T06:02:18.726Z,30.70
2019-04-16T06:04:47.496Z,29.67
2019-04-16T06:07:16.631Z,28.25
2019-04-16T06:09:45.564Z,30.80
2019-04-16T06:12:14.488Z,29.45
2019-04-16T06:14:49.579Z,28.20
2019-04-16T06:17:34.787Z,31.40
2019-04-16T06:20:13.582Z,30.75
2019-04-16T06:23:18.702Z,28.20
2019-04-16T06:25:51.501Z,28.67
2019-04-16T06:28:45.753Z,23.07
2019-04-16T06:31:42.742Z,24.70
2019-04-16T06:34:30.891Z,27.93
2019-04-16T06:37:20.746Z,34.83
2019-04-16T06:40:19.500Z,31.00
2019-04-16T06:42:54.101Z,28.47
2019-04-16T06:45:36.973Z,28.87
2019-04-16T06:48:13.175Z,26.33
2019-04-16T06:50:48.375Z,29.45
2019-04-16T06:53:39.423Z,30.25
2019-04-16T06:56:26.813Z,27.45
2019-04-16T06:59:07.387Z,30.48
2019-04-16T07:01:55.361Z,25.37
2019-04-16T07:04:43.576Z,26.20
2019-04-16T07:07:16.861Z,26.23
2019-04-16T07:09:56.763Z,27.50
2019-04-16T07:12:37.966Z,27.05
2019-04-16T07:15:03.171Z,27.48
2019-04-16T07:17:33.742Z,26.68
2019-04-16T07:20:04.776Z,25.97
2019-04-16T07:22:34.976Z,25.45
2019-04-16T07:25:05.777Z,25.15
2019-04-16T07:27:55.877Z,26.95
2019-04-16T07:30:42.929Z,25.60
2019-04-16T07:33:34.374Z,27.15
2019-04-16T07:36:24.262Z,28.62
2019-04-16T07:39:30.691Z,25.37
2019-04-16T07:42:20.957Z,25.35
2019-04-16T07:44:59.817Z,28.73
2019-04-16T07:48:06.979Z,25.90
2019-04-16T07:50:54.687Z,26.07
2019-04-16T07:53:50.083Z,26.87
2019-04-16T07:56:24.502Z,27.52
2019-04-16T07:58:53.542Z,26.97
2019-04-16T08:01:22.558Z,29.00
2019-04-16T08:03:51.703Z,25.05
2019-04-16T08:06:20.859Z,27.30
2019-04-16T08:08:49.879Z,24.15
2019-04-16T08:11:18.899Z,26.77
2019-04-16T08:13:47.971Z,22.32
2019-04-16T08:16:17.068Z,27.77
2019-04-16T08:18:52.244Z,22.20
2019-04-16T08:21:22.645Z,23.75
2019-04-16T08:23:58.544Z,23.70
2019-04-16T08:26:27.689Z,22.95
2019-04-16T08:28:56.749Z,23.92
2019-04-16T08:31:28.003Z,26.62
2019-04-16T08:33:56.928Z,26.42
2019-04-16T08:36:26.081Z,23.35
2019-04-16T08:38:55.425Z,25.23
2019-04-16T08:41:24.607Z,28.60
2019-04-16T08:43:53.604Z,26.93
2019-04-16T08:46:22.940Z,23.25
2019-04-16T08:48:54.303Z,25.88
2019-04-16T08:51:30.236Z,25.08
2019-04-16T08:53:53.419Z,27.15
2019-04-16T08:56:22.491Z,25.12
2019-04-16T08:58:51.523Z,31.52
2019-04-16T09:01:26.016Z,25.00
2019-04-16T09:03:55.168Z,30.75
2019-04-16T09:06:24.235Z,26.12
2019-04-16T09:09:18.634Z,26.55
2019-04-16T09:11:53.318Z,25.12
2019-04-16T09:14:25.741Z,27.27
2019-04-16T09:17:15.958Z,22.82
2019-04-16T09:19:51.359Z,28.20
2019-04-16T09:22:20.435Z,23.47
2019-04-16T09:25:12.519Z,29.70
2019-04-16T09:27:42.183Z,26.85
2019-04-16T09:30:39.762Z,23.70
2019-04-16T09:33:40.290Z,23.38
2019-04-16T09:36:25.051Z,26.30
2019-04-16T09:39:01.752Z,26.50
2019-04-16T09:41:34.023Z,22.10
2019-04-16T09:44:03.173Z,35.80
2019-04-16T09:46:50.304Z,23.27
2019-04-16T09:49:04.722Z,22.62
2019-04-16T09:51:33.786Z,28.38
2019-04-16T09:54:02.804Z,21.23
2019-04-16T09:56:32.474Z,20.17
2019-04-16T09:59:05.349Z,21.07
2019-04-16T10:01:46.297Z,22.10
2019-04-16T10:04:34.503Z,20.20
2019-04-16T10:07:03.672Z,25.85
2019-04-16T10:09:32.803Z,19.35
2019-04-16T10:12:01.742Z,20.85
2019-04-16T10:14:32.196Z,23.02
2019-04-16T10:17:01.399Z,23.35
2019-04-16T10:19:30.436Z,20.70
2019-04-16T10:21:59.582Z,24.18
2019-04-16T10:24:47.678Z,22.77
2019-04-16T10:27:25.342Z,25.10
2019-04-16T10:29:54.477Z,21.42
2019-04-16T10:32:24.011Z,21.50
2019-04-16T10:34:53.194Z,25.50
2019-04-16T10:37:22.335Z,27.65
2019-04-16T10:39:59.589Z,23.00
2019-04-16T10:43:00.750Z,22.02
2019-04-16T10:45:54.946Z,20.85
2019-04-16T10:48:43.171Z,22.22
2019-04-16T10:51:24.111Z,19.15
2019-04-16T10:54:05.256Z,20.65
2019-04-16T10:56:56.796Z,18.35
2019-04-16T10:59:42.016Z,21.82
2019-04-16T11:02:39.182Z,24.70
2019-04-16T11:05:27.823Z,24.45
2019-04-16T11:07:57.622Z,21.77
2019-04-16T11:10:26.793Z,23.30
2019-04-16T11:12:55.984Z,23.35
2019-04-16T11:15:26.152Z,21.07
2019-04-16T11:17:55.136Z,21.55
2019-04-16T11:20:24.567Z,21.95
2019-04-16T11:23:12.766Z,19.37
2019-04-16T11:25:41.871Z,19.05
2019-04-16T11:28:13.771Z,19.30
2019-04-16T11:30:44.058Z,20.35
2019-04-16T11:33:13.176Z,20.77
2019-04-16T11:35:42.286Z,17.75
2019-04-16T11:38:11.426Z,18.67
2019-04-16T11:40:41.235Z,18.12
2019-04-16T11:43:10.673Z,19.17
2019-04-16T11:45:39.870Z,16.67
2019-04-16T11:48:09.075Z,21.25
2019-04-16T11:50:38.197Z,17.05
2019-04-16T11:53:07.269Z,22.58
2019-04-16T11:55:36.426Z,19.12
2019-04-16T11:58:10.446Z,19.00
2019-04-16T12:00:50.217Z,17.75
2019-04-16T12:03:36.506Z,18.20
2019-04-16T12:06:28.303Z,14.28
2019-04-16T12:09:12.024Z,17.12
2019-04-16T12:12:00.130Z,15.35
2019-04-16T12:14:42.463Z,17.82
2019-04-16T12:17:40.751Z,16.02
2019-04-16T12:20:47.404Z,16.50
2019-04-16T12:23:44.098Z,14.18
2019-04-16T12:26:32.349Z,15.35
2019-04-16T12:29:18.223Z,14.25
2019-04-16T12:32:15.591Z,16.50
2019-04-16T12:35:02.582Z,16.73
2019-04-16T12:37:49.884Z,21.02
2019-04-16T12:40:43.912Z,25.10
2019-04-16T12:43:24.159Z,18.67
2019-04-16T12:46:11.185Z,14.55
2019-04-16T12:48:59.379Z,15.15
2019-04-16T12:51:59.561Z,18.73
2019-04-16T12:54:46.354Z,15.35
2019-04-16T12:57:47.152Z,14.28
2019-04-16T13:00:35.115Z,15.63
2019-04-16T13:03:32.393Z,17.32
2019-04-16T13:06:15.141Z,21.10
2019-04-16T13:09:03.156Z,17.20
2019-04-16T13:11:58.467Z,15.08
2019-04-16T13:15:00.964Z,18.60
2019-04-16T13:17:54.558Z,15.78
2019-04-16T13:20:41.308Z,16.67
2019-04-16T13:23:21.065Z,13.43
2019-04-16T13:26:01.343Z,15.48
2019-04-16T13:28:30.337Z,13.03
2019-04-16T13:30:59.658Z,14.30
2019-04-16T13:33:29.038Z,15.25
2019-04-16T13:35:58.054Z,13.60
2019-04-16T13:38:28.014Z,16.30
2019-04-16T13:40:57.079Z,13.68
2019-04-16T13:43:33.737Z,21.70
2019-04-16T13:46:01.826Z,14.55
2019-04-16T13:48:42.132Z,17.40
2019-04-16T13:51:16.434Z,13.10
2019-04-16T13:53:47.455Z,12.85
2019-04-16T13:56:22.383Z,13.58
2019-04-16T13:59:05.788Z,13.70
2019-04-16T14:01:39.290Z,11.90
2019-04-16T14:04:09.226Z,14.18
2019-04-16T14:06:38.210Z,14.98
2019-04-16T14:09:08.629Z,17.02
2019-04-16T14:11:37.951Z,12.68
2019-04-16T14:14:08.294Z,17.20
2019-04-16T14:16:37.634Z,11.33
2019-04-16T14:19:06.987Z,12.73
2019-04-16T14:21:36.345Z,11.33
2019-04-16T14:24:05.434Z,13.75
2019-04-16T14:26:34.574Z,12.33
2019-04-16T14:29:06.769Z,13.22
2019-04-16T14:31:34.498Z,11.03
2019-04-16T14:34:11.629Z,13.32
2019-04-16T14:36:40.752Z,12.37
2019-04-16T14:39:31.990Z,15.85
2019-04-16T14:42:01.007Z,15.35
2019-04-16T14:44:34.721Z,15.80
2019-04-16T14:47:04.473Z,15.20
2019-04-16T14:49:33.770Z,13.15
2019-04-16T14:52:03.585Z,16.25
2019-04-16T14:54:47.487Z,17.37
2019-04-16T14:57:16.667Z,18.85
2019-04-16T15:00:03.480Z,17.52
2019-04-16T15:02:37.188Z,17.73
2019-04-16T15:05:08.436Z,15.48
2019-04-16T15:07:44.097Z,19.25
2019-04-16T15:10:31.815Z,15.05
2019-04-16T15:13:11.986Z,18.45
2019-04-16T15:16:10.743Z,16.12
2019-04-16T15:18:51.503Z,15.43
2019-04-16T15:21:58.138Z,17.67
2019-04-16T15:25:01.391Z,16.30
2019-04-16T15:27:49.582Z,16.62
2019-04-16T15:30:30.099Z,17.35
2019-04-16T15:33:17.087Z,14.35
2019-04-16T15:36:05.235Z,16.97
2019-04-16T15:38:38.970Z,13.72
2019-04-16T15:41:21.294Z,15.75
2019-04-16T15:44:08.562Z,15.75
2019-04-16T15:46:52.564Z,16.75
2019-04-16T15:49:29.134Z,16.20
2019-04-16T15:52:15.983Z,16.85
2019-04-16T15:55:19.222Z,16.52
2019-04-16T15:58:09.711Z,16.95
2019-04-16T16:00:53.467Z,14.63
2019-04-16T16:03:40.480Z,15.85
2019-04-16T16:06:16.784Z,20.30
2019-04-16T16:08:52.383Z,17.90
2019-04-16T16:11:25.278Z,18.87
2019-04-16T16:13:56.641Z,15.53
2019-04-16T16:16:40.570Z,18.32
2019-04-16T16:18:55.805Z,16.07
2019-04-16T16:21:24.741Z,18.30
2019-04-16T16:23:54.322Z,19.02
2019-04-16T16:26:23.516Z,17.10
2019-04-16T16:28:52.710Z,15.80
2019-04-16T16:31:21.640Z,14.35
2019-04-16T16:33:50.732Z,16.73
2019-04-16T16:36:19.894Z,16.85
2019-04-16T16:38:49.265Z,18.23
2019-04-16T16:41:18.413Z,18.73
2019-04-16T16:43:47.492Z,18.92
2019-04-16T16:46:57.182Z,15.30
2019-04-16T16:49:21.627Z,16.95
2019-04-16T16:52:08.434Z,18.23
2019-04-16T16:54:37.515Z,15.83
2019-04-16T16:57:20.038Z,14.85
2019-04-16T17:02:44.031Z,20.50
2019-04-16T17:05:17.520Z,17.40
2019-04-16T17:07:46.678Z,17.12
2019-04-16T17:10:15.818Z,17.55
2019-04-16T17:12:44.893Z,19.92
2019-04-16T17:15:14.046Z,20.72
2019-04-16T17:17:43.042Z,21.50
2019-04-16T17:20:12.112Z,20.75
2019-04-16T17:22:41.180Z,21.75
2019-04-16T17:25:11.685Z,18.85
2019-04-16T17:27:51.011Z,18.40
2019-04-16T17:30:12.592Z,20.82
2019-04-16T17:32:41.740Z,21.70
2019-04-16T17:35:14.296Z,17.37
2019-04-16T17:37:41.652Z,19.80
2019-04-16T17:40:32.900Z,16.52
2019-04-16T17:43:12.933Z,22.27
2019-04-16T17:45:55.654Z,25.80
2019-04-16T17:48:29.475Z,24.15
2019-04-16T17:51:16.902Z,23.77
2019-04-16T17:53:52.849Z,25.45
2019-04-16T17:56:39.730Z,18.40
2019-04-16T17:59:15.658Z,18.10
2019-04-16T18:02:15.771Z,16.62
2019-04-16T18:04:57.647Z,22.87
2019-04-16T18:07:46.133Z,18.92
2019-04-16T18:10:43.343Z,15.05
2019-04-16T18:13:40.324Z,16.37
2019-04-16T18:16:22.775Z,18.20
2019-04-16T18:18:56.481Z,18.15
2019-04-16T18:21:43.505Z,17.50
2019-04-16T18:24:31.915Z,14.63
2019-04-16T18:27:20.351Z,14.18
2019-04-16T18:30:07.420Z,15.78
2019-04-16T18:32:52.699Z,14.28
2019-04-16T18:35:53.058Z,16.23
2019-04-16T18:38:38.027Z,15.40
2019-04-16T18:41:20.046Z,18.15
2019-04-16T18:44:06.809Z,16.52
2019-04-16T18:46:47.289Z,15.18
2019-04-16T18:49:18.630Z,17.95
2019-04-16T18:51:47.810Z,17.25
2019-04-16T18:54:16.822Z,14.25
2019-04-16T18:56:45.827Z,14.98
2019-04-16T18:59:15.011Z,17.20
2019-04-16T19:01:46.091Z,16.70
2019-04-16T19:04:15.254Z,15.78
2019-04-16T19:06:44.359Z,12.73
2019-04-16T19:09:13.438Z,13.85
2019-04-16T19:11:42.595Z,16.23
2019-04-16T19:14:13.275Z,18.60
2019-04-16T19:16:42.495Z,16.25
2019-04-16T19:19:11.645Z,14.73
2019-04-16T19:21:42.615Z,15.28
2019-04-16T19:24:11.563Z,14.25
2019-04-16T19:26:40.659Z,14.10
2019-04-16T19:29:13.336Z,19.55
2019-04-16T19:31:40.518Z,16.55
2019-04-16T19:34:10.587Z,18.60
2019-04-16T19:36:39.814Z,20.27
2019-04-16T19:39:13.723Z,15.45
2019-04-16T19:41:41.374Z,18.30
2019-04-16T19:44:10.824Z,13.95
2019-04-16T19:46:39.838Z,15.80
2019-04-16T19:49:08.914Z,16.10
2019-04-16T19:51:41.128Z,19.80
2019-04-16T19:54:08.778Z,15.13
2019-04-16T19:56:37.793Z,20.15
2019-04-16T19:59:06.887Z,17.92
2019-04-16T20:01:36.003Z,18.55
2019-04-16T20:04:09.733Z,18.73
2019-04-16T20:06:36.074Z,15.68
2019-04-16T20:09:07.125Z,19.75
2019-04-16T20:11:36.224Z,17.45
2019-04-16T20:14:05.430Z,15.78
2019-04-16T20:16:34.475Z,21.57
2019-04-16T20:19:03.625Z,18.75
2019-04-16T20:21:32.751Z,17.87
2019-04-16T20:24:01.924Z,17.98
2019-04-16T20:26:32.647Z,17.65
2019-04-16T20:29:01.844Z,20.12
2019-04-16T20:31:31.036Z,18.85
2019-04-16T20:34:00.409Z,22.05
2019-04-16T20:36:29.510Z,20.10
2019-04-16T20:38:58.567Z,22.22
2019-04-16T20:41:27.582Z,19.60
2019-04-16T20:43:56.662Z,24.40
2019-04-16T20:46:25.815Z,23.55
2019-04-16T20:49:08.248Z,22.67
2019-04-16T20:51:26.546Z,19.37
2019-04-16T20:53:56.628Z,21.80
2019-04-16T20:56:25.739Z,19.40
2019-04-16T20:58:54.770Z,17.70
2019-04-16T21:01:33.857Z,16.93
2019-04-16T21:04:04.668Z,25.37
2019-04-16T21:06:28.319Z,18.25
2019-04-16T21:08:58.298Z,19.73
2019-04-16T21:11:27.442Z,20.37
2019-04-16T21:13:56.547Z,19.17
2019-04-16T21:16:25.935Z,24.60
2019-04-16T21:18:55.476Z,21.40
2019-04-16T21:21:24.697Z,21.55
2019-04-16T21:23:53.767Z,19.62
2019-04-16T21:26:22.796Z,23.38
2019-04-16T21:28:58.535Z,22.22
2019-04-16T21:31:31.069Z,21.57
2019-04-16T21:34:10.107Z,18.23
2019-04-16T21:36:43.876Z,18.62
2019-04-16T21:39:18.146Z,18.98
2019-04-16T21:41:47.271Z,18.95
2019-04-16T21:44:16.368Z,21.00
2019-04-16T21:46:45.473Z,24.77
2019-04-16T21:49:14.646Z,20.32
2019-04-16T21:52:01.614Z,18.48
2019-04-16T21:54:31.455Z,21.90
2019-04-16T21:57:00.839Z,18.15
2019-04-16T21:59:30.045Z,20.32
2019-04-16T22:01:59.616Z,22.65
2019-04-16T22:04:28.852Z,16.97
2019-04-16T22:06:58.018Z,22.42
2019-04-16T22:09:27.127Z,25.02
2019-04-16T22:11:56.538Z,18.67
2019-04-16T22:14:26.054Z,19.05
2019-04-16T22:16:55.171Z,19.23
2019-04-16T22:19:24.268Z,15.98
2019-04-16T22:21:53.465Z,20.20
2019-04-16T22:24:23.733Z,18.65
2019-04-16T22:26:53.077Z,18.07
2019-04-16T22:29:22.154Z,17.77
2019-04-16T22:31:52.724Z,17.57
2019-04-16T22:34:22.080Z,26.40
2019-04-16T22:36:51.168Z,18.02
2019-04-16T22:39:43.110Z,19.40
2019-04-16T22:42:26.440Z,18.80
2019-04-16T22:47:41.048Z,18.52
2019-04-16T22:50:16.359Z,18.92
2019-04-16T22:52:41.604Z,18.70
2019-04-16T22:55:11.799Z,17.02
2019-04-16T22:57:40.721Z,23.25
2019-04-16T23:00:20.163Z,17.87
2019-04-16T23:02:49.158Z,18.02
2019-04-16T23:05:18.182Z,17.87
2019-04-16T23:07:47.272Z,21.45
2019-04-16T23:10:17.792Z,20.08
2019-04-16T23:12:47.046Z,22.05
2019-04-16T23:15:16.059Z,19.48
2019-04-16T23:17:46.155Z,20.65
2019-04-16T23:20:28.474Z,18.45
2019-04-16T23:22:48.175Z,20.23
2019-04-16T23:25:17.266Z,20.92
2019-04-16T23:27:46.311Z,17.07
2019-04-16T23:30:15.682Z,17.23
2019-04-16T23:32:46.310Z,19.65
2019-04-16T23:35:15.322Z,17.57
2019-04-16T23:37:44.417Z,21.82
2019-04-16T23:40:13.580Z,19.48
2019-04-16T23:42:54.583Z,18.70
2019-04-16T23:45:36.796Z,21.73
2019-04-16T23:48:15.617Z,18.05
2019-04-16T23:51:00.676Z,16.10
2019-04-16T23:54:01.255Z,19.52
2019-04-16T23:56:37.399Z,21.35
2019-04-16T23:59:22.788Z,21.12
